sensor_id;sensor_type;location;lat;lon;timestamp;temperature;humidity
15815;DHT22;8008;50.024;8.172;2023-03-30T03:01:34;11.40;99.90
15815;DHT22;8008;50.024;8.172;2023-03-30T03:04:10;11.40;99.90
15815;DHT22;8008;50.024;8.172;2023-03-30T03:07:14;11.40;99.90
15815;DHT22;8008;50.024;8.172;2023-03-30T03:09:43;11.40;99.90
15815;DHT22;8008;50.024;8.172;2023-03-30T03:12:15;11.40;99.90
15815;DHT22;8008;50.024;8.172;2023-03-30T03:14:44;11.40;99.90
15815;DHT22;8008;50.024;8.172;2023-03-30T03:17:13;11.40;99.90
15815;DHT22;8008;50.024;8.172;2023-03-30T03:19:48;11.30;99.90
15815;DHT22;8008;50.024;8.172;2023-03-30T03:22:18;11.40;99.90
15815;DHT22;8008;50.024;8.172;2023-03-30T03:24:46;11.40;99.90
15815;DHT22;8008;50.024;8.172;2023-03-30T03:27:13;11.50;99.90
15815;DHT22;8008;50.024;8.172;2023-03-30T03:30:09;11.40;99.90
15815;DHT22;8008;50.024;8.172;2023-03-30T03:32:45;11.40;99.90
15815;DHT22;8008;50.024;8.172;2023-03-30T03:35:16;11.40;99.90
15815;DHT22;8008;50.024;8.172;2023-03-30T03:37:44;11.40;99.90
15815;DHT22;8008;50.024;8.172;2023-03-30T03:40:12;11.40;99.90
15815;DHT22;8008;50.024;8.172;2023-03-30T03:42:40;11.40;99.90
15815;DHT22;8008;50.024;8.172;2023-03-30T03:45:10;11.30;99.90
15815;DHT22;8008;50.024;8.172;2023-03-30T03:47:56;11.20;99.90
15815;DHT22;8008;50.024;8.172;2023-03-30T03:50:44;11.10;99.90
15815;DHT22;8008;50.024;8.172;2023-03-30T03:53:15;11.10;99.90
15815;DHT22;8008;50.024;8.172;2023-03-30T03:55:43;11.10;99.90
15815;DHT22;8008;50.024;8.172;2023-03-30T03:58:12;11.10;99.90
15815;DHT22;8008;50.024;8.172;2023-03-30T04:00:41;11.10;99.90
15815;DHT22;8008;50.024;8.172;2023-03-30T04:03:11;11.10;99.90
15815;DHT22;8008;50.024;8.172;2023-03-30T04:05:39;11.20;99.90
15815;DHT22;8008;50.024;8.172;2023-03-30T04:08:08;11.20;99.90
15815;DHT22;8008;50.024;8.172;2023-03-30T04:10:39;11.30;99.90
15815;DHT22;8008;50.024;8.172;2023-03-30T04:13:23;11.30;99.90
15815;DHT22;8008;50.024;8.172;2023-03-30T04:16:29;11.40;99.90
15815;DHT22;8008;50.024;8.172;2023-03-30T04:19:12;11.50;99.90
15815;DHT22;8008;50.024;8.172;2023-03-30T04:21:59;11.50;99.90
15815;DHT22;8008;50.024;8.172;2023-03-30T04:24:33;11.50;99.90
15815;DHT22;8008;50.024;8.172;2023-03-30T04:27:20;11.50;99.90
15815;DHT22;8008;50.024;8.172;2023-03-30T04:30:08;11.50;99.90
15815;DHT22;8008;50.024;8.172;2023-03-30T04:32:36;11.50;99.90
15815;DHT22;8008;50.024;8.172;2023-03-30T04:35:32;11.50;99.90
15815;DHT22;8008;50.024;8.172;2023-03-30T04:38:10;11.60;99.90
15815;DHT22;8008;50.024;8.172;2023-03-30T04:40:55;11.50;99.90
15815;DHT22;8008;50.024;8.172;2023-03-30T04:43:47;11.50;99.90
15815;DHT22;8008;50.024;8.172;2023-03-30T04:46:31;11.60;99.90
15815;DHT22;8008;50.024;8.172;2023-03-30T04:49:18;11.60;99.90
15815;DHT22;8008;50.024;8.172;2023-03-30T04:51:50;11.50;99.90
15815;DHT22;8008;50.024;8.172;2023-03-30T04:54:24;11.50;99.90
15815;DHT22;8008;50.024;8.172;2023-03-30T04:56:55;11.50;99.90
15815;DHT22;8008;50.024;8.172;2023-03-30T04:59:44;11.40;99.90
15815;DHT22;8008;50.024;8.172;2023-03-30T05:02:30;11.50;99.90
15815;DHT22;8008;50.024;8.172;2023-03-30T05:05:19;11.50;99.90
15815;DHT22;8008;50.024;8.172;2023-03-30T05:08:20;11.50;99.90
15815;DHT22;8008;50.024;8.172;2023-03-30T05:11:07;11.50;99.90
15815;DHT22;8008;50.024;8.172;2023-03-30T05:13:44;11.40;99.90
15815;DHT22;8008;50.024;8.172;2023-03-30T05:16:31;11.30;99.90
15815;DHT22;8008;50.024;8.172;2023-03-30T05:19:21;11.30;99.90
15815;DHT22;8008;50.024;8.172;2023-03-30T05:22:10;11.30;99.90
15815;DHT22;8008;50.024;8.172;2023-03-30T05:24:58;11.30;99.90
15815;DHT22;8008;50.024;8.172;2023-03-30T05:27:52;11.30;99.90
15815;DHT22;8008;50.024;8.172;2023-03-30T05:30:38;11.10;99.90
15815;DHT22;8008;50.024;8.172;2023-03-30T05:33:32;11.10;99.90
15815;DHT22;8008;50.024;8.172;2023-03-30T05:36:18;11.10;99.90
15815;DHT22;8008;50.024;8.172;2023-03-30T05:39:03;11.10;99.90
15815;DHT22;8008;50.024;8.172;2023-03-30T05:41:51;11.10;99.90
15815;DHT22;8008;50.024;8.172;2023-03-30T05:44:42;11.10;99.90
15815;DHT22;8008;50.024;8.172;2023-03-30T05:47:29;11.10;99.90
15815;DHT22;8008;50.024;8.172;2023-03-30T05:50:03;11.10;99.90
15815;DHT22;8008;50.024;8.172;2023-03-30T05:52:45;11.10;99.90
15815;DHT22;8008;50.024;8.172;2023-03-30T05:55:43;11.10;99.90
15815;DHT22;8008;50.024;8.172;2023-03-30T05:58:34;11.10;99.90
15815;DHT22;8008;50.024;8.172;2023-03-30T06:01:25;11.00;99.90
15815;DHT22;8008;50.024;8.172;2023-03-30T06:03:54;11.00;99.90
15815;DHT22;8008;50.024;8.172;2023-03-30T06:06:22;11.00;99.90
15815;DHT22;8008;50.024;8.172;2023-03-30T06:08:50;10.90;99.90
15815;DHT22;8008;50.024;8.172;2023-03-30T06:11:22;10.90;99.90
15815;DHT22;8008;50.024;8.172;2023-03-30T06:14:01;10.90;99.90
15815;DHT22;8008;50.024;8.172;2023-03-30T06:16:29;10.90;99.90
15815;DHT22;8008;50.024;8.172;2023-03-30T06:18:58;11.00;99.90
15815;DHT22;8008;50.024;8.172;2023-03-30T06:21:26;11.00;99.90
15815;DHT22;8008;50.024;8.172;2023-03-30T06:24:17;11.10;99.90
15815;DHT22;8008;50.024;8.172;2023-03-30T06:26:48;11.00;99.90
15815;DHT22;8008;50.024;8.172;2023-03-30T06:29:17;11.10;99.90
15815;DHT22;8008;50.024;8.172;2023-03-30T06:31:46;11.10;99.90
15815;DHT22;8008;50.024;8.172;2023-03-30T06:34:33;11.20;99.90
15815;DHT22;8008;50.024;8.172;2023-03-30T06:37:01;11.20;99.90
15815;DHT22;8008;50.024;8.172;2023-03-30T06:39:30;11.20;99.90
15815;DHT22;8008;50.024;8.172;2023-03-30T06:42:05;11.10;99.90
15815;DHT22;8008;50.024;8.172;2023-03-30T06:44:58;11.30;99.90
15815;DHT22;8008;50.024;8.172;2023-03-30T06:47:26;11.40;99.90
15815;DHT22;8008;50.024;8.172;2023-03-30T06:49:54;11.40;99.90
15815;DHT22;8008;50.024;8.172;2023-03-30T06:52:41;11.40;99.90
15815;DHT22;8008;50.024;8.172;2023-03-30T06:55:09;11.40;99.90
15815;DHT22;8008;50.024;8.172;2023-03-30T06:57:38;11.40;99.90
15815;DHT22;8008;50.024;8.172;2023-03-30T07:00:08;11.50;99.90
15815;DHT22;8008;50.024;8.172;2023-03-30T07:02:39;11.60;99.90
15815;DHT22;8008;50.024;8.172;2023-03-30T07:05:22;11.80;99.90
15815;DHT22;8008;50.024;8.172;2023-03-30T07:08:13;11.80;99.90
15815;DHT22;8008;50.024;8.172;2023-03-30T07:10:48;11.80;99.90
15815;DHT22;8008;50.024;8.172;2023-03-30T07:13:18;11.70;99.90
15815;DHT22;8008;50.024;8.172;2023-03-30T07:15:49;11.80;99.90
15815;DHT22;8008;50.024;8.172;2023-03-30T07:18:18;11.70;99.90
15815;DHT22;8008;50.024;8.172;2023-03-30T07:20:47;11.70;99.90
15815;DHT22;8008;50.024;8.172;2023-03-30T07:23:18;11.80;99.90
15815;DHT22;8008;50.024;8.172;2023-03-30T07:25:49;11.90;99.90
15815;DHT22;8008;50.024;8.172;2023-03-30T07:28:28;11.80;99.90
15815;DHT22;8008;50.024;8.172;2023-03-30T07:31:03;11.70;99.90
15815;DHT22;8008;50.024;8.172;2023-03-30T07:33:34;11.80;99.90
15815;DHT22;8008;50.024;8.172;2023-03-30T07:36:05;11.80;99.90
15815;DHT22;8008;50.024;8.172;2023-03-30T07:38:34;11.90;99.90
15815;DHT22;8008;50.024;8.172;2023-03-30T07:41:06;12.00;99.90
15815;DHT22;8008;50.024;8.172;2023-03-30T07:43:35;12.10;99.90
15815;DHT22;8008;50.024;8.172;2023-03-30T07:46:05;12.20;99.90
15815;DHT22;8008;50.024;8.172;2023-03-30T07:48:37;12.20;99.90
15815;DHT22;8008;50.024;8.172;2023-03-30T07:51:07;12.30;99.90
15815;DHT22;8008;50.024;8.172;2023-03-30T07:53:41;12.30;99.90
15815;DHT22;8008;50.024;8.172;2023-03-30T07:56:17;12.30;99.90
15815;DHT22;8008;50.024;8.172;2023-03-30T07:58:48;12.30;99.90
15815;DHT22;8008;50.024;8.172;2023-03-30T08:01:20;12.40;99.90
15815;DHT22;8008;50.024;8.172;2023-03-30T08:04:10;12.50;99.90
15815;DHT22;8008;50.024;8.172;2023-03-30T08:06:39;12.60;99.90
15815;DHT22;8008;50.024;8.172;2023-03-30T08:09:07;12.70;99.90
15815;DHT22;8008;50.024;8.172;2023-03-30T08:11:36;12.80;99.90
15815;DHT22;8008;50.024;8.172;2023-03-30T08:14:04;13.00;99.90
15815;DHT22;8008;50.024;8.172;2023-03-30T08:16:33;13.10;99.90
15815;DHT22;8008;50.024;8.172;2023-03-30T08:19:01;13.20;99.90
15815;DHT22;8008;50.024;8.172;2023-03-30T08:21:29;13.40;99.90
15815;DHT22;8008;50.024;8.172;2023-03-30T08:23:57;13.40;99.90
15815;DHT22;8008;50.024;8.172;2023-03-30T08:26:26;13.50;99.90
15815;DHT22;8008;50.024;8.172;2023-03-30T08:28:56;13.60;99.90
15815;DHT22;8008;50.024;8.172;2023-03-30T08:31:24;13.70;99.90
15815;DHT22;8008;50.024;8.172;2023-03-30T08:33:53;13.90;99.90
15815;DHT22;8008;50.024;8.172;2023-03-30T08:36:22;14.00;99.90
15815;DHT22;8008;50.024;8.172;2023-03-30T08:38:50;14.00;99.90
15815;DHT22;8008;50.024;8.172;2023-03-30T08:41:39;14.10;99.90
15815;DHT22;8008;50.024;8.172;2023-03-30T08:44:13;14.10;99.90
15815;DHT22;8008;50.024;8.172;2023-03-30T08:46:47;14.20;99.90
15815;DHT22;8008;50.024;8.172;2023-03-30T08:49:19;14.30;99.90
15815;DHT22;8008;50.024;8.172;2023-03-30T08:51:49;14.20;99.90
15815;DHT22;8008;50.024;8.172;2023-03-30T08:54:20;14.20;99.90
15815;DHT22;8008;50.024;8.172;2023-03-30T08:56:56;14.10;99.90
15815;DHT22;8008;50.024;8.172;2023-03-30T08:59:33;14.10;99.90
15815;DHT22;8008;50.024;8.172;2023-03-30T09:02:06;14.00;99.90
15815;DHT22;8008;50.024;8.172;2023-03-30T09:04:50;14.00;99.90
15815;DHT22;8008;50.024;8.172;2023-03-30T09:07:24;13.90;99.90
15815;DHT22;8008;50.024;8.172;2023-03-30T09:09:53;14.00;99.90
15815;DHT22;8008;50.024;8.172;2023-03-30T09:12:28;13.90;99.90
15815;DHT22;8008;50.024;8.172;2023-03-30T09:15:02;13.90;99.90
15815;DHT22;8008;50.024;8.172;2023-03-30T09:17:32;13.90;99.90
15815;DHT22;8008;50.024;8.172;2023-03-30T09:20:07;13.90;99.90
15815;DHT22;8008;50.024;8.172;2023-03-30T09:22:40;14.00;99.90
15815;DHT22;8008;50.024;8.172;2023-03-30T09:25:14;14.10;99.90
15815;DHT22;8008;50.024;8.172;2023-03-30T09:27:49;14.10;99.90
15815;DHT22;8008;50.024;8.172;2023-03-30T09:30:24;14.20;99.90
15815;DHT22;8008;50.024;8.172;2023-03-30T09:32:57;14.30;99.90
15815;DHT22;8008;50.024;8.172;2023-03-30T09:35:35;14.30;99.90
15815;DHT22;8008;50.024;8.172;2023-03-30T09:38:04;14.40;99.90
15815;DHT22;8008;50.024;8.172;2023-03-30T09:41:05;14.40;99.90
15815;DHT22;8008;50.024;8.172;2023-03-30T09:43:40;14.50;99.90
15815;DHT22;8008;50.024;8.172;2023-03-30T09:46:10;14.60;99.90
15815;DHT22;8008;50.024;8.172;2023-03-30T09:48:39;14.60;99.90
15815;DHT22;8008;50.024;8.172;2023-03-30T09:51:20;14.70;99.90
15815;DHT22;8008;50.024;8.172;2023-03-30T09:53:50;14.70;99.90
15815;DHT22;8008;50.024;8.172;2023-03-30T09:56:25;14.90;99.90
15815;DHT22;8008;50.024;8.172;2023-03-30T09:58:54;14.90;99.90
15815;DHT22;8008;50.024;8.172;2023-03-30T10:01:34;15.00;99.90
15815;DHT22;8008;50.024;8.172;2023-03-30T10:04:08;15.10;99.90
15815;DHT22;8008;50.024;8.172;2023-03-30T10:06:45;15.20;99.90
15815;DHT22;8008;50.024;8.172;2023-03-30T10:09:14;15.20;99.90
15815;DHT22;8008;50.024;8.172;2023-03-30T10:11:44;15.40;99.90
15815;DHT22;8008;50.024;8.172;2023-03-30T10:14:27;15.70;99.90
15815;DHT22;8008;50.024;8.172;2023-03-30T10:16:57;16.10;99.90
15815;DHT22;8008;50.024;8.172;2023-03-30T10:19:26;16.40;99.90
15815;DHT22;8008;50.024;8.172;2023-03-30T10:21:57;16.70;99.90
15815;DHT22;8008;50.024;8.172;2023-03-30T10:24:26;16.70;99.90
15815;DHT22;8008;50.024;8.172;2023-03-30T10:26:56;16.80;99.90
15815;DHT22;8008;50.024;8.172;2023-03-30T10:29:27;16.80;99.90
15815;DHT22;8008;50.024;8.172;2023-03-30T10:31:58;16.90;99.90
15815;DHT22;8008;50.024;8.172;2023-03-30T10:34:34;16.70;99.90
15815;DHT22;8008;50.024;8.172;2023-03-30T10:37:06;16.50;99.90
15815;DHT22;8008;50.024;8.172;2023-03-30T10:39:38;16.40;99.90
15815;DHT22;8008;50.024;8.172;2023-03-30T10:42:10;16.20;99.90
15815;DHT22;8008;50.024;8.172;2023-03-30T10:44:44;16.20;99.90
15815;DHT22;8008;50.024;8.172;2023-03-30T10:47:23;16.10;99.90
15815;DHT22;8008;50.024;8.172;2023-03-30T10:50:00;16.10;99.90
15815;DHT22;8008;50.024;8.172;2023-03-30T10:52:36;16.20;99.90
15815;DHT22;8008;50.024;8.172;2023-03-30T10:55:27;16.20;99.90
15815;DHT22;8008;50.024;8.172;2023-03-30T10:58:04;16.50;99.90
15815;DHT22;8008;50.024;8.172;2023-03-30T11:00:44;16.50;99.90
15815;DHT22;8008;50.024;8.172;2023-03-30T11:03:18;16.80;99.90
15815;DHT22;8008;50.024;8.172;2023-03-30T11:05:48;16.80;99.90
15815;DHT22;8008;50.024;8.172;2023-03-30T11:08:20;16.70;99.90
15815;DHT22;8008;50.024;8.172;2023-03-30T11:10:53;16.60;99.90
15815;DHT22;8008;50.024;8.172;2023-03-30T11:13:25;16.40;99.90
15815;DHT22;8008;50.024;8.172;2023-03-30T11:15:54;16.30;99.90
15815;DHT22;8008;50.024;8.172;2023-03-30T11:18:27;16.20;99.90
15815;DHT22;8008;50.024;8.172;2023-03-30T11:20:59;16.20;99.90
15815;DHT22;8008;50.024;8.172;2023-03-30T11:23:37;16.00;99.90
15815;DHT22;8008;50.024;8.172;2023-03-30T11:26:09;16.20;99.90
15815;DHT22;8008;50.024;8.172;2023-03-30T11:28:57;16.70;99.90
15815;DHT22;8008;50.024;8.172;2023-03-30T11:31:43;17.20;99.90
15815;DHT22;8008;50.024;8.172;2023-03-30T11:34:20;17.90;99.90
15815;DHT22;8008;50.024;8.172;2023-03-30T11:36:56;18.10;99.90
15815;DHT22;8008;50.024;8.172;2023-03-30T11:39:29;18.10;99.90
15815;DHT22;8008;50.024;8.172;2023-03-30T11:42:05;17.80;99.20
15815;DHT22;8008;50.024;8.172;2023-03-30T11:44:36;18.30;98.70
15815;DHT22;8008;50.024;8.172;2023-03-30T11:47:18;18.20;98.10
15815;DHT22;8008;50.024;8.172;2023-03-30T11:50:03;17.90;95.60
15815;DHT22;8008;50.024;8.172;2023-03-30T11:52:39;17.80;96.10
15815;DHT22;8008;50.024;8.172;2023-03-30T11:55:27;18.20;96.60
15815;DHT22;8008;50.024;8.172;2023-03-30T11:58:07;18.20;96.60
15815;DHT22;8008;50.024;8.172;2023-03-30T12:00:54;18.20;96.80
15815;DHT22;8008;50.024;8.172;2023-03-30T12:03:35;18.50;94.60
15815;DHT22;8008;50.024;8.172;2023-03-30T12:06:22;18.30;93.30
15815;DHT22;8008;50.024;8.172;2023-03-30T12:09:05;18.60;92.90
15815;DHT22;8008;50.024;8.172;2023-03-30T12:11:41;19.00;92.40
15815;DHT22;8008;50.024;8.172;2023-03-30T12:14:25;18.90;92.30
15815;DHT22;8008;50.024;8.172;2023-03-30T12:16:58;18.80;92.70
15815;DHT22;8008;50.024;8.172;2023-03-30T12:19:32;18.70;91.00
15815;DHT22;8008;50.024;8.172;2023-03-30T12:22:24;18.40;90.50
15815;DHT22;8008;50.024;8.172;2023-03-30T12:24:59;18.20;90.80
15815;DHT22;8008;50.024;8.172;2023-03-30T12:27:35;17.90;91.10
15815;DHT22;8008;50.024;8.172;2023-03-30T12:30:24;17.70;91.60
15815;DHT22;8008;50.024;8.172;2023-03-30T12:32:58;17.40;91.80
15815;DHT22;8008;50.024;8.172;2023-03-30T12:35:53;17.20;95.70
15815;DHT22;8008;50.024;8.172;2023-03-30T12:38:23;17.00;99.50
15815;DHT22;8008;50.024;8.172;2023-03-30T12:41:00;16.80;99.80
15815;DHT22;8008;50.024;8.172;2023-03-30T12:43:38;16.80;98.20
15815;DHT22;8008;50.024;8.172;2023-03-30T12:46:11;16.60;96.80
15815;DHT22;8008;50.024;8.172;2023-03-30T12:48:53;16.60;97.40
15815;DHT22;8008;50.024;8.172;2023-03-30T12:51:34;16.00;99.90
15815;DHT22;8008;50.024;8.172;2023-03-30T12:54:31;15.80;99.90
15815;DHT22;8008;50.024;8.172;2023-03-30T12:57:12;15.80;99.90
15815;DHT22;8008;50.024;8.172;2023-03-30T13:02:57;16.30;99.90
15815;DHT22;8008;50.024;8.172;2023-03-30T13:05:29;16.40;99.90
15815;DHT22;8008;50.024;8.172;2023-03-30T13:08:02;16.30;99.90
15815;DHT22;8008;50.024;8.172;2023-03-30T13:10:34;16.30;99.90
15815;DHT22;8008;50.024;8.172;2023-03-30T13:13:03;16.20;99.90
15815;DHT22;8008;50.024;8.172;2023-03-30T13:15:39;15.90;99.90
15815;DHT22;8008;50.024;8.172;2023-03-30T13:18:30;14.70;99.90
15815;DHT22;8008;50.024;8.172;2023-03-30T13:21:05;12.50;99.90
15815;DHT22;8008;50.024;8.172;2023-03-30T13:23:42;11.90;99.90
15815;DHT22;8008;50.024;8.172;2023-03-30T13:26:21;11.80;99.90
15815;DHT22;8008;50.024;8.172;2023-03-30T13:29:05;12.10;99.90
15815;DHT22;8008;50.024;8.172;2023-03-30T13:32:05;12.10;99.90
15815;DHT22;8008;50.024;8.172;2023-03-30T13:35:00;11.90;99.90
15815;DHT22;8008;50.024;8.172;2023-03-30T13:37:50;11.90;99.90
15815;DHT22;8008;50.024;8.172;2023-03-30T13:40:23;12.00;99.90
15815;DHT22;8008;50.024;8.172;2023-03-30T13:43:12;12.10;99.90
15815;DHT22;8008;50.024;8.172;2023-03-30T13:45:48;12.40;99.90
15815;DHT22;8008;50.024;8.172;2023-03-30T13:48:42;12.70;99.90
15815;DHT22;8008;50.024;8.172;2023-03-30T13:51:16;13.00;99.90
15815;DHT22;8008;50.024;8.172;2023-03-30T13:53:49;12.90;99.90
15815;DHT22;8008;50.024;8.172;2023-03-30T13:56:19;12.80;99.90
15815;DHT22;8008;50.024;8.172;2023-03-30T13:58:50;12.70;99.90
15815;DHT22;8008;50.024;8.172;2023-03-30T14:01:23;12.80;99.90
15815;DHT22;8008;50.024;8.172;2023-03-30T14:03:54;12.80;99.90
15815;DHT22;8008;50.024;8.172;2023-03-30T14:06:24;12.80;99.90
15815;DHT22;8008;50.024;8.172;2023-03-30T14:08:58;12.80;99.90
15815;DHT22;8008;50.024;8.172;2023-03-30T14:11:37;12.80;99.90
15815;DHT22;8008;50.024;8.172;2023-03-30T14:14:06;12.70;99.90
15815;DHT22;8008;50.024;8.172;2023-03-30T14:16:36;12.60;99.90
15815;DHT22;8008;50.024;8.172;2023-03-30T14:19:10;12.50;99.90
15815;DHT22;8008;50.024;8.172;2023-03-30T14:21:42;12.40;99.90
15815;DHT22;8008;50.024;8.172;2023-03-30T14:24:13;12.30;99.90
15815;DHT22;8008;50.024;8.172;2023-03-30T14:26:42;12.20;99.90
15815;DHT22;8008;50.024;8.172;2023-03-30T14:29:15;12.10;99.90
15815;DHT22;8008;50.024;8.172;2023-03-30T14:31:58;12.10;99.90
15815;DHT22;8008;50.024;8.172;2023-03-30T14:34:36;12.10;99.90
15815;DHT22;8008;50.024;8.172;2023-03-30T14:37:06;12.20;99.90
15815;DHT22;8008;50.024;8.172;2023-03-30T14:39:38;12.30;99.90
15815;DHT22;8008;50.024;8.172;2023-03-30T14:42:12;12.40;99.90
15815;DHT22;8008;50.024;8.172;2023-03-30T14:44:41;12.30;99.90
15815;DHT22;8008;50.024;8.172;2023-03-30T14:47:10;12.40;99.90
15815;DHT22;8008;50.024;8.172;2023-03-30T14:49:40;12.70;99.90
15815;DHT22;8008;50.024;8.172;2023-03-30T14:52:16;13.40;99.90
15815;DHT22;8008;50.024;8.172;2023-03-30T14:54:45;14.10;99.90
15815;DHT22;8008;50.024;8.172;2023-03-30T14:57:31;14.00;99.90
15815;DHT22;8008;50.024;8.172;2023-03-30T15:00:05;13.50;99.90
15815;DHT22;8008;50.024;8.172;2023-03-30T15:02:49;13.10;99.90
15815;DHT22;8008;50.024;8.172;2023-03-30T15:05:19;12.90;99.90
15815;DHT22;8008;50.024;8.172;2023-03-30T15:07:49;12.90;99.90
15815;DHT22;8008;50.024;8.172;2023-03-30T15:10:23;12.90;99.90
15815;DHT22;8008;50.024;8.172;2023-03-30T15:12:54;13.50;99.90
15815;DHT22;8008;50.024;8.172;2023-03-30T15:15:25;14.00;99.90
15815;DHT22;8008;50.024;8.172;2023-03-30T15:17:54;14.60;99.90
15815;DHT22;8008;50.024;8.172;2023-03-30T15:20:25;14.60;99.90
15815;DHT22;8008;50.024;8.172;2023-03-30T15:22:55;14.50;99.90
15815;DHT22;8008;50.024;8.172;2023-03-30T15:25:28;14.20;99.90
15815;DHT22;8008;50.024;8.172;2023-03-30T15:28:00;14.00;99.90
15815;DHT22;8008;50.024;8.172;2023-03-30T15:30:31;13.70;99.90
15815;DHT22;8008;50.024;8.172;2023-03-30T15:33:00;13.60;99.90
15815;DHT22;8008;50.024;8.172;2023-03-30T15:35:30;13.50;99.90
15815;DHT22;8008;50.024;8.172;2023-03-30T15:38:00;13.40;99.90
15815;DHT22;8008;50.024;8.172;2023-03-30T15:40:33;13.40;99.90
15815;DHT22;8008;50.024;8.172;2023-03-30T15:43:11;13.40;99.90
15815;DHT22;8008;50.024;8.172;2023-03-30T15:45:40;13.60;99.90
15815;DHT22;8008;50.024;8.172;2023-03-30T15:48:12;13.80;99.90
15815;DHT22;8008;50.024;8.172;2023-03-30T15:50:46;14.00;99.90
15815;DHT22;8008;50.024;8.172;2023-03-30T15:53:19;13.90;99.90
15815;DHT22;8008;50.024;8.172;2023-03-30T15:55:49;13.80;99.90
15815;DHT22;8008;50.024;8.172;2023-03-30T15:58:22;13.70;99.90
15815;DHT22;8008;50.024;8.172;2023-03-30T16:00:52;13.60;99.90
15815;DHT22;8008;50.024;8.172;2023-03-30T16:03:35;13.60;99.90
15815;DHT22;8008;50.024;8.172;2023-03-30T16:06:11;13.60;99.90
15815;DHT22;8008;50.024;8.172;2023-03-30T16:08:39;13.60;99.90
15815;DHT22;8008;50.024;8.172;2023-03-30T16:11:09;13.50;99.90
15815;DHT22;8008;50.024;8.172;2023-03-30T16:13:41;13.60;99.90
15815;DHT22;8008;50.024;8.172;2023-03-30T16:16:09;13.60;99.90
15815;DHT22;8008;50.024;8.172;2023-03-30T16:18:39;13.70;99.90
15815;DHT22;8008;50.024;8.172;2023-03-30T16:21:11;13.70;99.90
15815;DHT22;8008;50.024;8.172;2023-03-30T16:23:41;13.70;99.90
15815;DHT22;8008;50.024;8.172;2023-03-30T16:26:10;13.60;99.90
15815;DHT22;8008;50.024;8.172;2023-03-30T16:28:38;13.60;99.90
15815;DHT22;8008;50.024;8.172;2023-03-30T16:31:13;13.70;99.90
15815;DHT22;8008;50.024;8.172;2023-03-30T16:33:42;13.70;99.90
15815;DHT22;8008;50.024;8.172;2023-03-30T16:36:13;13.80;99.90
15815;DHT22;8008;50.024;8.172;2023-03-30T16:38:41;13.80;99.90
15815;DHT22;8008;50.024;8.172;2023-03-30T16:41:10;13.90;99.90
15815;DHT22;8008;50.024;8.172;2023-03-30T16:43:39;13.90;99.90
15815;DHT22;8008;50.024;8.172;2023-03-30T16:46:09;13.90;99.90
15815;DHT22;8008;50.024;8.172;2023-03-30T16:48:38;13.80;99.90
15815;DHT22;8008;50.024;8.172;2023-03-30T16:51:08;13.80;99.90
15815;DHT22;8008;50.024;8.172;2023-03-30T16:53:38;13.70;99.90
15815;DHT22;8008;50.024;8.172;2023-03-30T16:56:12;13.70;99.90
15815;DHT22;8008;50.024;8.172;2023-03-30T16:58:41;13.60;99.90
15815;DHT22;8008;50.024;8.172;2023-03-30T17:01:10;13.60;99.90
15815;DHT22;8008;50.024;8.172;2023-03-30T17:03:39;13.50;99.90
15815;DHT22;8008;50.024;8.172;2023-03-30T17:06:07;13.50;99.90
15815;DHT22;8008;50.024;8.172;2023-03-30T17:08:35;13.50;99.90
15815;DHT22;8008;50.024;8.172;2023-03-30T17:11:04;13.40;99.90
15815;DHT22;8008;50.024;8.172;2023-03-30T17:13:33;13.40;99.90
15815;DHT22;8008;50.024;8.172;2023-03-30T17:16:01;13.40;99.90
15815;DHT22;8008;50.024;8.172;2023-03-30T17:18:29;13.40;99.90
15815;DHT22;8008;50.024;8.172;2023-03-30T17:20:58;13.40;99.90
15815;DHT22;8008;50.024;8.172;2023-03-30T17:23:28;13.40;99.90
15815;DHT22;8008;50.024;8.172;2023-03-30T17:25:58;13.40;99.90
15815;DHT22;8008;50.024;8.172;2023-03-30T17:28:29;13.40;99.90
15815;DHT22;8008;50.024;8.172;2023-03-30T17:30:59;13.40;99.90
15815;DHT22;8008;50.024;8.172;2023-03-30T17:33:27;13.40;99.90
15815;DHT22;8008;50.024;8.172;2023-03-30T17:35:58;13.40;99.90
15815;DHT22;8008;50.024;8.172;2023-03-30T17:38:27;13.40;99.90
15815;DHT22;8008;50.024;8.172;2023-03-30T17:40:55;13.40;99.90
15815;DHT22;8008;50.024;8.172;2023-03-30T17:43:23;13.40;99.90
15815;DHT22;8008;50.024;8.172;2023-03-30T17:45:52;13.40;99.90
15815;DHT22;8008;50.024;8.172;2023-03-30T17:48:21;13.40;99.90
15815;DHT22;8008;50.024;8.172;2023-03-30T17:50:49;13.40;99.90
15815;DHT22;8008;50.024;8.172;2023-03-30T17:53:18;13.40;99.90
15815;DHT22;8008;50.024;8.172;2023-03-30T17:55:48;13.30;99.90
15815;DHT22;8008;50.024;8.172;2023-03-30T17:58:19;13.30;99.90
15815;DHT22;8008;50.024;8.172;2023-03-30T18:00:48;13.30;99.90
15815;DHT22;8008;50.024;8.172;2023-03-30T18:03:19;13.20;99.90
15815;DHT22;8008;50.024;8.172;2023-03-30T18:05:48;13.20;99.90
15815;DHT22;8008;50.024;8.172;2023-03-30T18:08:18;13.20;99.90
15815;DHT22;8008;50.024;8.172;2023-03-30T18:10:48;13.20;99.90
15815;DHT22;8008;50.024;8.172;2023-03-30T18:13:18;13.20;99.90
15815;DHT22;8008;50.024;8.172;2023-03-30T18:15:47;13.20;99.90
15815;DHT22;8008;50.024;8.172;2023-03-30T18:18:18;13.20;99.90
15815;DHT22;8008;50.024;8.172;2023-03-30T18:20:51;13.10;99.90
15815;DHT22;8008;50.024;8.172;2023-03-30T18:23:19;13.10;99.90
15815;DHT22;8008;50.024;8.172;2023-03-30T18:25:47;13.00;99.90
15815;DHT22;8008;50.024;8.172;2023-03-30T18:28:17;12.90;99.90
15815;DHT22;8008;50.024;8.172;2023-03-30T18:30:45;12.90;99.90
15815;DHT22;8008;50.024;8.172;2023-03-30T18:33:14;12.90;99.90
15815;DHT22;8008;50.024;8.172;2023-03-30T18:35:45;12.90;99.90
15815;DHT22;8008;50.024;8.172;2023-03-30T18:38:15;12.90;99.90
15815;DHT22;8008;50.024;8.172;2023-03-30T18:40:45;12.90;99.90
15815;DHT22;8008;50.024;8.172;2023-03-30T18:43:15;12.80;99.90
15815;DHT22;8008;50.024;8.172;2023-03-30T18:45:44;12.90;99.90
15815;DHT22;8008;50.024;8.172;2023-03-30T18:48:15;12.90;99.90
15815;DHT22;8008;50.024;8.172;2023-03-30T18:50:46;12.80;99.90
15815;DHT22;8008;50.024;8.172;2023-03-30T18:53:15;12.80;99.90
15815;DHT22;8008;50.024;8.172;2023-03-30T18:55:45;12.90;99.90
15815;DHT22;8008;50.024;8.172;2023-03-30T18:58:15;12.90;99.90
15815;DHT22;8008;50.024;8.172;2023-03-30T19:00:44;12.80;99.90
15815;DHT22;8008;50.024;8.172;2023-03-30T19:03:12;12.80;99.90
15815;DHT22;8008;50.024;8.172;2023-03-30T19:05:41;12.70;99.90
15815;DHT22;8008;50.024;8.172;2023-03-30T19:08:12;12.70;99.90
15815;DHT22;8008;50.024;8.172;2023-03-30T19:10:41;12.60;99.90
15815;DHT22;8008;50.024;8.172;2023-03-30T19:13:11;12.60;99.90
15815;DHT22;8008;50.024;8.172;2023-03-30T19:15:40;12.60;99.90
15815;DHT22;8008;50.024;8.172;2023-03-30T19:18:08;12.50;99.90
15815;DHT22;8008;50.024;8.172;2023-03-30T19:20:38;12.50;99.90
15815;DHT22;8008;50.024;8.172;2023-03-30T19:23:09;12.40;99.90
15815;DHT22;8008;50.024;8.172;2023-03-30T19:25:40;12.40;99.90
15815;DHT22;8008;50.024;8.172;2023-03-30T19:28:09;12.40;99.90
15815;DHT22;8008;50.024;8.172;2023-03-30T19:30:38;12.40;99.90
15815;DHT22;8008;50.024;8.172;2023-03-30T19:33:08;12.40;99.90
15815;DHT22;8008;50.024;8.172;2023-03-30T19:35:38;12.40;99.90